Manes, Missouri
Current Conditions -  °F | °C
As of 6:58 PM on Friday 24 Oct 2014 (Local Time) from KTBN Reporting Station
Few Clouds Few Clouds  
Wind Chill: 68°   Ceiling: Unl
Heat Index: 68°   Visibility: 10mi
Dew Point: 61°   Wind: 5mph
Humidity: 79%   Direction: 200°SSW
Pressure: 30.03"   Gusts: NA
Location:  37.2656°N, 92.3257°W
Report Text: KTBN 242358Z AUTO 20004KT 10SM FEW055 20/16 A3003 RMK AO2 SLP167 T01980161 10238 20197 55005
Loading
Personal Weather Stations






























Interactive Weather Map
Tropical Storm Tracking
New forecast layout! Learn more

10-Day Weather Forecast

Advertisements
Track Severe Weather on mobile